sensor_id;sensor_type;location;lat;lon;timestamp;temperature;humidity
6822;DHT22;3449;48.728;8.968;2023-05-10T00:00:40;12.60;99.90
6822;DHT22;3449;48.728;8.968;2023-05-10T00:03:07;12.50;99.90
6822;DHT22;3449;48.728;8.968;2023-05-10T00:05:34;12.40;99.90
6822;DHT22;3449;48.728;8.968;2023-05-10T00:08:02;12.40;99.90
6822;DHT22;3449;48.728;8.968;2023-05-10T00:10:30;12.30;99.90
6822;DHT22;3449;48.728;8.968;2023-05-10T00:12:56;12.30;99.90
6822;DHT22;3449;48.728;8.968;2023-05-10T00:15:23;12.30;99.90
6822;DHT22;3449;48.728;8.968;2023-05-10T00:17:50;12.30;99.90
6822;DHT22;3449;48.728;8.968;2023-05-10T00:20:17;12.30;99.90
6822;DHT22;3449;48.728;8.968;2023-05-10T00:22:44;12.20;99.90
6822;DHT22;3449;48.728;8.968;2023-05-10T00:25:12;12.10;99.90
6822;DHT22;3449;48.728;8.968;2023-05-10T00:27:39;12.10;99.90
6822;DHT22;3449;48.728;8.968;2023-05-10T00:30:07;12.10;99.90
6822;DHT22;3449;48.728;8.968;2023-05-10T00:32:34;12.10;99.90
6822;DHT22;3449;48.728;8.968;2023-05-10T00:35:01;12.00;99.90
6822;DHT22;3449;48.728;8.968;2023-05-10T00:37:27;12.00;99.90
6822;DHT22;3449;48.728;8.968;2023-05-10T00:39:54;12.00;99.90
6822;DHT22;3449;48.728;8.968;2023-05-10T00:42:23;12.00;99.90
6822;DHT22;3449;48.728;8.968;2023-05-10T00:44:49;12.00;99.90
6822;DHT22;3449;48.728;8.968;2023-05-10T00:47:18;11.90;99.90
6822;DHT22;3449;48.728;8.968;2023-05-10T00:49:45;11.90;99.90
6822;DHT22;3449;48.728;8.968;2023-05-10T00:52:13;11.90;99.90
6822;DHT22;3449;48.728;8.968;2023-05-10T00:54:40;11.90;99.90
6822;DHT22;3449;48.728;8.968;2023-05-10T00:57:07;11.90;99.90
6822;DHT22;3449;48.728;8.968;2023-05-10T00:59:35;11.90;99.90
6822;DHT22;3449;48.728;8.968;2023-05-10T01:02:02;11.90;99.90
6822;DHT22;3449;48.728;8.968;2023-05-10T01:04:30;11.90;99.90
6822;DHT22;3449;48.728;8.968;2023-05-10T01:06:57;11.90;99.90
6822;DHT22;3449;48.728;8.968;2023-05-10T01:09:24;11.90;99.90
6822;DHT22;3449;48.728;8.968;2023-05-10T01:11:52;11.90;99.90
6822;DHT22;3449;48.728;8.968;2023-05-10T01:14:20;11.90;99.90
6822;DHT22;3449;48.728;8.968;2023-05-10T01:16:49;11.90;99.90
6822;DHT22;3449;48.728;8.968;2023-05-10T01:19:19;11.90;99.90
6822;DHT22;3449;48.728;8.968;2023-05-10T01:21:56;11.90;99.90
6822;DHT22;3449;48.728;8.968;2023-05-10T01:24:40;11.90;99.90
6822;DHT22;3449;48.728;8.968;2023-05-10T01:27:53;11.90;99.90
6822;DHT22;3449;48.728;8.968;2023-05-10T01:30:57;11.80;99.90
6822;DHT22;3449;48.728;8.968;2023-05-10T01:33:35;11.80;99.90
6822;DHT22;3449;48.728;8.968;2023-05-10T01:36:08;11.70;99.90
6822;DHT22;3449;48.728;8.968;2023-05-10T01:38:42;11.70;99.90
6822;DHT22;3449;48.728;8.968;2023-05-10T01:41:16;11.70;99.90
6822;DHT22;3449;48.728;8.968;2023-05-10T01:43:49;11.70;99.90
6822;DHT22;3449;48.728;8.968;2023-05-10T01:46:24;11.70;99.90
6822;DHT22;3449;48.728;8.968;2023-05-10T01:48:55;11.70;99.90
6822;DHT22;3449;48.728;8.968;2023-05-10T01:51:26;11.70;99.90
6822;DHT22;3449;48.728;8.968;2023-05-10T01:53:58;11.60;99.90
6822;DHT22;3449;48.728;8.968;2023-05-10T01:56:29;11.70;99.90
6822;DHT22;3449;48.728;8.968;2023-05-10T01:58:57;11.70;99.90
6822;DHT22;3449;48.728;8.968;2023-05-10T02:01:25;11.60;99.90
6822;DHT22;3449;48.728;8.968;2023-05-10T02:03:55;11.60;99.90
6822;DHT22;3449;48.728;8.968;2023-05-10T02:06:24;11.70;99.90
6822;DHT22;3449;48.728;8.968;2023-05-10T02:08:53;11.60;99.90
6822;DHT22;3449;48.728;8.968;2023-05-10T02:11:20;11.60;99.90
6822;DHT22;3449;48.728;8.968;2023-05-10T02:13:49;11.60;99.90
6822;DHT22;3449;48.728;8.968;2023-05-10T02:16:17;11.60;99.90
6822;DHT22;3449;48.728;8.968;2023-05-10T02:18:45;11.60;99.90
6822;DHT22;3449;48.728;8.968;2023-05-10T02:21:15;11.60;99.90
6822;DHT22;3449;48.728;8.968;2023-05-10T02:23:43;11.60;99.90
6822;DHT22;3449;48.728;8.968;2023-05-10T02:26:12;11.60;99.90
6822;DHT22;3449;48.728;8.968;2023-05-10T02:28:41;11.60;99.90
6822;DHT22;3449;48.728;8.968;2023-05-10T02:31:09;11.60;99.90
6822;DHT22;3449;48.728;8.968;2023-05-10T02:33:37;11.60;99.90
6822;DHT22;3449;48.728;8.968;2023-05-10T02:36:07;11.60;99.90
6822;DHT22;3449;48.728;8.968;2023-05-10T02:38:36;11.60;99.90
6822;DHT22;3449;48.728;8.968;2023-05-10T02:41:05;11.50;99.90
6822;DHT22;3449;48.728;8.968;2023-05-10T02:43:34;11.60;99.90
6822;DHT22;3449;48.728;8.968;2023-05-10T02:46:02;11.50;99.90
6822;DHT22;3449;48.728;8.968;2023-05-10T02:48:29;11.60;99.90
6822;DHT22;3449;48.728;8.968;2023-05-10T02:51:07;11.60;99.90
6822;DHT22;3449;48.728;8.968;2023-05-10T02:53:37;11.60;99.90
6822;DHT22;3449;48.728;8.968;2023-05-10T02:56:11;11.60;99.90
6822;DHT22;3449;48.728;8.968;2023-05-10T02:58:39;11.60;99.90
6822;DHT22;3449;48.728;8.968;2023-05-10T03:01:06;11.60;99.90
6822;DHT22;3449;48.728;8.968;2023-05-10T03:03:34;11.60;99.90
6822;DHT22;3449;48.728;8.968;2023-05-10T03:06:01;11.50;99.90
6822;DHT22;3449;48.728;8.968;2023-05-10T03:08:28;11.50;99.90
6822;DHT22;3449;48.728;8.968;2023-05-10T03:11:14;11.50;99.90
6822;DHT22;3449;48.728;8.968;2023-05-10T03:13:52;11.50;99.90
6822;DHT22;3449;48.728;8.968;2023-05-10T03:16:26;11.50;99.90
6822;DHT22;3449;48.728;8.968;2023-05-10T03:19:00;11.50;99.90
6822;DHT22;3449;48.728;8.968;2023-05-10T03:21:29;11.50;99.90
6822;DHT22;3449;48.728;8.968;2023-05-10T03:24:01;11.50;99.90
6822;DHT22;3449;48.728;8.968;2023-05-10T03:26:32;11.60;99.90
6822;DHT22;3449;48.728;8.968;2023-05-10T03:29:00;11.60;99.90
6822;DHT22;3449;48.728;8.968;2023-05-10T03:31:28;11.60;99.90
6822;DHT22;3449;48.728;8.968;2023-05-10T03:33:54;11.50;99.90
6822;DHT22;3449;48.728;8.968;2023-05-10T03:36:21;11.60;99.90
6822;DHT22;3449;48.728;8.968;2023-05-10T03:38:48;11.60;99.90
6822;DHT22;3449;48.728;8.968;2023-05-10T03:41:15;11.50;99.90
6822;DHT22;3449;48.728;8.968;2023-05-10T03:43:44;11.60;99.90
6822;DHT22;3449;48.728;8.968;2023-05-10T03:46:11;11.50;99.90
6822;DHT22;3449;48.728;8.968;2023-05-10T03:48:37;11.50;99.90
6822;DHT22;3449;48.728;8.968;2023-05-10T03:51:04;11.40;99.90
6822;DHT22;3449;48.728;8.968;2023-05-10T03:53:31;11.40;99.90
6822;DHT22;3449;48.728;8.968;2023-05-10T03:55:58;11.30;99.90
6822;DHT22;3449;48.728;8.968;2023-05-10T03:58:25;11.40;99.90
6822;DHT22;3449;48.728;8.968;2023-05-10T04:00:53;11.30;99.90
6822;DHT22;3449;48.728;8.968;2023-05-10T04:03:20;11.40;99.90
6822;DHT22;3449;48.728;8.968;2023-05-10T04:05:48;11.30;99.90
6822;DHT22;3449;48.728;8.968;2023-05-10T04:08:15;11.30;99.90
6822;DHT22;3449;48.728;8.968;2023-05-10T04:10:42;11.30;99.90
6822;DHT22;3449;48.728;8.968;2023-05-10T04:13:09;11.40;99.90
6822;DHT22;3449;48.728;8.968;2023-05-10T04:15:36;11.40;99.90
6822;DHT22;3449;48.728;8.968;2023-05-10T04:18:04;11.40;99.90
6822;DHT22;3449;48.728;8.968;2023-05-10T04:20:32;11.40;99.90
6822;DHT22;3449;48.728;8.968;2023-05-10T04:22:59;11.40;99.90
6822;DHT22;3449;48.728;8.968;2023-05-10T04:25:26;11.30;99.90
6822;DHT22;3449;48.728;8.968;2023-05-10T04:27:53;11.40;99.90
6822;DHT22;3449;48.728;8.968;2023-05-10T04:30:20;11.30;99.90
6822;DHT22;3449;48.728;8.968;2023-05-10T04:32:47;11.40;99.90
6822;DHT22;3449;48.728;8.968;2023-05-10T04:35:15;11.40;99.90
6822;DHT22;3449;48.728;8.968;2023-05-10T04:37:42;11.50;99.90
6822;DHT22;3449;48.728;8.968;2023-05-10T04:40:10;11.50;99.90
6822;DHT22;3449;48.728;8.968;2023-05-10T04:42:37;11.50;99.90
6822;DHT22;3449;48.728;8.968;2023-05-10T04:45:07;11.50;99.90
6822;DHT22;3449;48.728;8.968;2023-05-10T04:47:35;11.50;99.90
6822;DHT22;3449;48.728;8.968;2023-05-10T04:50:02;11.60;99.90
6822;DHT22;3449;48.728;8.968;2023-05-10T04:52:31;11.50;99.90
6822;DHT22;3449;48.728;8.968;2023-05-10T04:54:57;11.60;99.90
6822;DHT22;3449;48.728;8.968;2023-05-10T04:57:24;11.60;99.90
6822;DHT22;3449;48.728;8.968;2023-05-10T04:59:51;11.50;99.90
6822;DHT22;3449;48.728;8.968;2023-05-10T05:02:18;11.50;99.90
6822;DHT22;3449;48.728;8.968;2023-05-10T05:04:45;11.60;99.90
6822;DHT22;3449;48.728;8.968;2023-05-10T05:07:12;11.60;99.90
6822;DHT22;3449;48.728;8.968;2023-05-10T05:09:40;11.60;99.90
6822;DHT22;3449;48.728;8.968;2023-05-10T05:12:07;11.60;99.90
6822;DHT22;3449;48.728;8.968;2023-05-10T05:14:39;11.60;99.90
6822;DHT22;3449;48.728;8.968;2023-05-10T05:17:06;11.70;99.90
6822;DHT22;3449;48.728;8.968;2023-05-10T05:19:33;11.70;99.90
6822;DHT22;3449;48.728;8.968;2023-05-10T05:22:01;11.70;99.90
6822;DHT22;3449;48.728;8.968;2023-05-10T05:24:28;11.70;99.90
6822;DHT22;3449;48.728;8.968;2023-05-10T05:26:56;11.70;99.90
6822;DHT22;3449;48.728;8.968;2023-05-10T05:29:23;11.70;99.90
6822;DHT22;3449;48.728;8.968;2023-05-10T05:31:50;11.80;99.90
6822;DHT22;3449;48.728;8.968;2023-05-10T05:34:17;11.70;99.90
6822;DHT22;3449;48.728;8.968;2023-05-10T05:36:45;11.70;99.90
6822;DHT22;3449;48.728;8.968;2023-05-10T05:39:12;11.70;99.90
6822;DHT22;3449;48.728;8.968;2023-05-10T05:41:39;11.80;99.90
6822;DHT22;3449;48.728;8.968;2023-05-10T05:44:07;11.80;99.90
6822;DHT22;3449;48.728;8.968;2023-05-10T05:46:34;11.90;99.90
6822;DHT22;3449;48.728;8.968;2023-05-10T05:49:01;11.80;99.90
6822;DHT22;3449;48.728;8.968;2023-05-10T05:51:28;11.90;99.90
6822;DHT22;3449;48.728;8.968;2023-05-10T05:53:55;11.90;99.90
6822;DHT22;3449;48.728;8.968;2023-05-10T05:56:22;11.90;99.90
6822;DHT22;3449;48.728;8.968;2023-05-10T05:58:49;11.90;99.90
6822;DHT22;3449;48.728;8.968;2023-05-10T06:01:18;11.90;99.90
6822;DHT22;3449;48.728;8.968;2023-05-10T06:03:45;11.90;99.90
6822;DHT22;3449;48.728;8.968;2023-05-10T06:06:12;12.00;99.90
6822;DHT22;3449;48.728;8.968;2023-05-10T06:08:39;12.00;99.90
6822;DHT22;3449;48.728;8.968;2023-05-10T06:11:05;12.10;99.90
6822;DHT22;3449;48.728;8.968;2023-05-10T06:13:32;12.10;99.90
6822;DHT22;3449;48.728;8.968;2023-05-10T06:16:00;12.10;99.90
6822;DHT22;3449;48.728;8.968;2023-05-10T06:18:29;12.10;99.90
6822;DHT22;3449;48.728;8.968;2023-05-10T06:20:56;12.20;99.90
6822;DHT22;3449;48.728;8.968;2023-05-10T06:23:23;12.20;99.90
6822;DHT22;3449;48.728;8.968;2023-05-10T06:25:51;12.20;99.90
6822;DHT22;3449;48.728;8.968;2023-05-10T06:28:18;12.20;99.90
6822;DHT22;3449;48.728;8.968;2023-05-10T06:30:44;12.20;99.90
6822;DHT22;3449;48.728;8.968;2023-05-10T06:33:11;12.30;99.90
6822;DHT22;3449;48.728;8.968;2023-05-10T06:35:40;12.30;99.90
6822;DHT22;3449;48.728;8.968;2023-05-10T06:38:06;12.30;99.90
6822;DHT22;3449;48.728;8.968;2023-05-10T06:40:33;12.30;99.90
6822;DHT22;3449;48.728;8.968;2023-05-10T06:43:01;12.40;99.90
6822;DHT22;3449;48.728;8.968;2023-05-10T06:45:28;12.40;99.90
6822;DHT22;3449;48.728;8.968;2023-05-10T06:47:55;12.40;99.90
6822;DHT22;3449;48.728;8.968;2023-05-10T06:50:22;12.40;99.90
6822;DHT22;3449;48.728;8.968;2023-05-10T06:52:50;12.40;99.90
6822;DHT22;3449;48.728;8.968;2023-05-10T06:55:17;12.50;99.90
6822;DHT22;3449;48.728;8.968;2023-05-10T06:57:44;12.60;99.90
6822;DHT22;3449;48.728;8.968;2023-05-10T07:00:11;12.50;99.90
6822;DHT22;3449;48.728;8.968;2023-05-10T07:02:38;12.60;99.90
6822;DHT22;3449;48.728;8.968;2023-05-10T07:05:05;12.70;99.90
6822;DHT22;3449;48.728;8.968;2023-05-10T07:07:32;12.80;99.90
6822;DHT22;3449;48.728;8.968;2023-05-10T07:10:01;12.80;99.90
6822;DHT22;3449;48.728;8.968;2023-05-10T07:12:28;12.90;99.90
6822;DHT22;3449;48.728;8.968;2023-05-10T07:14:55;13.00;99.90
6822;DHT22;3449;48.728;8.968;2023-05-10T07:17:21;13.00;99.90
6822;DHT22;3449;48.728;8.968;2023-05-10T07:19:48;13.10;99.90
6822;DHT22;3449;48.728;8.968;2023-05-10T07:22:16;13.10;99.90
6822;DHT22;3449;48.728;8.968;2023-05-10T07:24:43;13.10;99.90
6822;DHT22;3449;48.728;8.968;2023-05-10T07:27:12;13.10;99.90
6822;DHT22;3449;48.728;8.968;2023-05-10T07:29:39;13.20;99.90
6822;DHT22;3449;48.728;8.968;2023-05-10T07:32:06;13.20;99.90
6822;DHT22;3449;48.728;8.968;2023-05-10T07:34:33;13.10;99.90
6822;DHT22;3449;48.728;8.968;2023-05-10T07:37:00;13.10;99.90
6822;DHT22;3449;48.728;8.968;2023-05-10T07:39:27;13.20;99.90
6822;DHT22;3449;48.728;8.968;2023-05-10T07:41:54;13.30;99.90
6822;DHT22;3449;48.728;8.968;2023-05-10T07:44:22;13.40;99.90
6822;DHT22;3449;48.728;8.968;2023-05-10T07:46:49;13.40;99.90
6822;DHT22;3449;48.728;8.968;2023-05-10T07:49:16;13.40;99.90
6822;DHT22;3449;48.728;8.968;2023-05-10T07:51:43;13.50;99.90
6822;DHT22;3449;48.728;8.968;2023-05-10T07:54:10;13.50;99.90
6822;DHT22;3449;48.728;8.968;2023-05-10T07:56:38;13.60;99.90
6822;DHT22;3449;48.728;8.968;2023-05-10T07:59:06;13.60;99.90
6822;DHT22;3449;48.728;8.968;2023-05-10T08:01:34;13.70;99.90
6822;DHT22;3449;48.728;8.968;2023-05-10T08:04:01;13.80;99.90
6822;DHT22;3449;48.728;8.968;2023-05-10T08:06:28;13.80;99.90
6822;DHT22;3449;48.728;8.968;2023-05-10T08:08:56;13.80;99.90
6822;DHT22;3449;48.728;8.968;2023-05-10T08:11:23;13.90;99.90
6822;DHT22;3449;48.728;8.968;2023-05-10T08:13:50;14.00;99.90
6822;DHT22;3449;48.728;8.968;2023-05-10T08:16:17;14.20;99.90
6822;DHT22;3449;48.728;8.968;2023-05-10T08:18:46;14.20;99.90
6822;DHT22;3449;48.728;8.968;2023-05-10T08:21:14;14.10;99.90
6822;DHT22;3449;48.728;8.968;2023-05-10T08:23:42;14.20;99.90
6822;DHT22;3449;48.728;8.968;2023-05-10T08:26:09;14.40;99.90
6822;DHT22;3449;48.728;8.968;2023-05-10T08:28:36;14.60;99.90
6822;DHT22;3449;48.728;8.968;2023-05-10T08:31:04;14.80;99.90
6822;DHT22;3449;48.728;8.968;2023-05-10T08:33:31;14.90;99.90
6822;DHT22;3449;48.728;8.968;2023-05-10T08:35:59;15.00;99.90
6822;DHT22;3449;48.728;8.968;2023-05-10T08:38:26;14.90;99.90
6822;DHT22;3449;48.728;8.968;2023-05-10T08:40:54;14.90;99.90
6822;DHT22;3449;48.728;8.968;2023-05-10T08:43:26;15.00;99.90
6822;DHT22;3449;48.728;8.968;2023-05-10T08:45:54;14.90;99.90
6822;DHT22;3449;48.728;8.968;2023-05-10T08:48:23;14.80;99.90
6822;DHT22;3449;48.728;8.968;2023-05-10T08:50:52;14.80;99.90
6822;DHT22;3449;48.728;8.968;2023-05-10T08:53:21;14.80;99.90
6822;DHT22;3449;48.728;8.968;2023-05-10T08:55:50;14.90;99.90
6822;DHT22;3449;48.728;8.968;2023-05-10T08:58:17;14.90;99.90
6822;DHT22;3449;48.728;8.968;2023-05-10T09:00:46;14.90;99.90
6822;DHT22;3449;48.728;8.968;2023-05-10T09:03:13;14.80;99.90
6822;DHT22;3449;48.728;8.968;2023-05-10T09:05:40;14.80;99.90
6822;DHT22;3449;48.728;8.968;2023-05-10T09:08:08;14.80;99.90
6822;DHT22;3449;48.728;8.968;2023-05-10T09:10:38;14.90;99.90
6822;DHT22;3449;48.728;8.968;2023-05-10T09:13:06;15.10;99.90
6822;DHT22;3449;48.728;8.968;2023-05-10T09:15:34;15.20;99.90
6822;DHT22;3449;48.728;8.968;2023-05-10T09:18:01;15.20;99.90
6822;DHT22;3449;48.728;8.968;2023-05-10T09:20:28;15.40;99.90
6822;DHT22;3449;48.728;8.968;2023-05-10T09:22:56;15.50;99.90
6822;DHT22;3449;48.728;8.968;2023-05-10T09:25:23;15.70;99.90
6822;DHT22;3449;48.728;8.968;2023-05-10T09:27:52;15.80;99.90
6822;DHT22;3449;48.728;8.968;2023-05-10T09:30:24;15.80;99.90
6822;DHT22;3449;48.728;8.968;2023-05-10T09:32:52;15.70;99.90
6822;DHT22;3449;48.728;8.968;2023-05-10T09:35:21;15.90;99.90
6822;DHT22;3449;48.728;8.968;2023-05-10T09:37:50;16.00;99.90
6822;DHT22;3449;48.728;8.968;2023-05-10T09:40:19;16.10;99.90
6822;DHT22;3449;48.728;8.968;2023-05-10T09:42:54;16.00;99.90
6822;DHT22;3449;48.728;8.968;2023-05-10T09:45:21;16.30;99.90
6822;DHT22;3449;48.728;8.968;2023-05-10T09:47:48;16.30;99.90
6822;DHT22;3449;48.728;8.968;2023-05-10T09:50:15;16.30;99.90
6822;DHT22;3449;48.728;8.968;2023-05-10T09:52:49;16.30;99.90
6822;DHT22;3449;48.728;8.968;2023-05-10T09:55:18;16.20;99.90
6822;DHT22;3449;48.728;8.968;2023-05-10T09:57:45;16.10;99.90
6822;DHT22;3449;48.728;8.968;2023-05-10T10:00:18;16.10;99.90
6822;DHT22;3449;48.728;8.968;2023-05-10T10:02:47;16.00;99.90
6822;DHT22;3449;48.728;8.968;2023-05-10T10:05:14;16.00;99.90
6822;DHT22;3449;48.728;8.968;2023-05-10T10:07:41;15.90;99.90
6822;DHT22;3449;48.728;8.968;2023-05-10T10:10:09;16.00;99.90
6822;DHT22;3449;48.728;8.968;2023-05-10T10:12:41;16.10;99.90
6822;DHT22;3449;48.728;8.968;2023-05-10T10:15:08;16.20;99.90
6822;DHT22;3449;48.728;8.968;2023-05-10T10:17:37;16.30;99.90
6822;DHT22;3449;48.728;8.968;2023-05-10T10:20:06;16.40;99.90
6822;DHT22;3449;48.728;8.968;2023-05-10T10:22:34;16.50;99.90
6822;DHT22;3449;48.728;8.968;2023-05-10T10:25:01;16.60;99.90
6822;DHT22;3449;48.728;8.968;2023-05-10T10:27:45;16.90;99.90
6822;DHT22;3449;48.728;8.968;2023-05-10T10:30:23;17.20;99.90
6822;DHT22;3449;48.728;8.968;2023-05-10T10:33:30;17.30;99.90
6822;DHT22;3449;48.728;8.968;2023-05-10T10:36:01;17.20;99.90
6822;DHT22;3449;48.728;8.968;2023-05-10T10:38:37;16.50;99.90
6822;DHT22;3449;48.728;8.968;2023-05-10T10:41:10;16.00;99.90
6822;DHT22;3449;48.728;8.968;2023-05-10T10:43:37;15.60;99.90
6822;DHT22;3449;48.728;8.968;2023-05-10T10:46:11;15.30;99.90
6822;DHT22;3449;48.728;8.968;2023-05-10T10:48:41;15.20;99.90
6822;DHT22;3449;48.728;8.968;2023-05-10T10:51:08;15.10;99.90
6822;DHT22;3449;48.728;8.968;2023-05-10T10:53:37;14.90;99.90
6822;DHT22;3449;48.728;8.968;2023-05-10T10:56:08;14.60;99.90
6822;DHT22;3449;48.728;8.968;2023-05-10T10:58:37;14.30;99.90
6822;DHT22;3449;48.728;8.968;2023-05-10T11:01:12;14.10;99.90
6822;DHT22;3449;48.728;8.968;2023-05-10T11:03:41;14.10;99.90
6822;DHT22;3449;48.728;8.968;2023-05-10T11:06:08;13.90;99.90
6822;DHT22;3449;48.728;8.968;2023-05-10T11:08:41;13.90;99.90
6822;DHT22;3449;48.728;8.968;2023-05-10T11:11:09;13.90;99.90
6822;DHT22;3449;48.728;8.968;2023-05-10T11:13:41;13.90;99.90
6822;DHT22;3449;48.728;8.968;2023-05-10T11:16:13;14.00;99.90
6822;DHT22;3449;48.728;8.968;2023-05-10T11:18:52;13.90;99.90
6822;DHT22;3449;48.728;8.968;2023-05-10T11:21:19;14.00;99.90
6822;DHT22;3449;48.728;8.968;2023-05-10T11:23:51;14.00;99.90
6822;DHT22;3449;48.728;8.968;2023-05-10T11:26:18;14.00;99.90
6822;DHT22;3449;48.728;8.968;2023-05-10T11:28:49;14.10;99.90
6822;DHT22;3449;48.728;8.968;2023-05-10T11:31:17;14.20;99.90
6822;DHT22;3449;48.728;8.968;2023-05-10T11:33:46;14.20;99.90
6822;DHT22;3449;48.728;8.968;2023-05-10T11:36:15;14.30;99.90
6822;DHT22;3449;48.728;8.968;2023-05-10T11:38:42;14.40;99.90
6822;DHT22;3449;48.728;8.968;2023-05-10T11:41:10;14.60;99.90
6822;DHT22;3449;48.728;8.968;2023-05-10T11:43:38;14.80;99.90
6822;DHT22;3449;48.728;8.968;2023-05-10T11:46:07;15.00;99.90
6822;DHT22;3449;48.728;8.968;2023-05-10T11:48:34;15.00;99.90
6822;DHT22;3449;48.728;8.968;2023-05-10T11:51:02;15.30;99.90
6822;DHT22;3449;48.728;8.968;2023-05-10T11:53:31;15.60;99.90
6822;DHT22;3449;48.728;8.968;2023-05-10T11:56:03;15.70;99.90
6822;DHT22;3449;48.728;8.968;2023-05-10T11:58:31;15.80;99.90
6822;DHT22;3449;48.728;8.968;2023-05-10T12:00:58;15.70;99.90
6822;DHT22;3449;48.728;8.968;2023-05-10T12:03:25;15.80;99.90
6822;DHT22;3449;48.728;8.968;2023-05-10T12:05:52;15.70;99.90
6822;DHT22;3449;48.728;8.968;2023-05-10T12:08:22;15.60;99.90
6822;DHT22;3449;48.728;8.968;2023-05-10T12:10:49;15.70;99.90
6822;DHT22;3449;48.728;8.968;2023-05-10T12:13:17;15.80;99.90
6822;DHT22;3449;48.728;8.968;2023-05-10T12:15:46;15.90;99.90
6822;DHT22;3449;48.728;8.968;2023-05-10T12:18:14;16.10;99.90
6822;DHT22;3449;48.728;8.968;2023-05-10T12:20:41;16.10;99.90
6822;DHT22;3449;48.728;8.968;2023-05-10T12:23:09;16.00;99.90
6822;DHT22;3449;48.728;8.968;2023-05-10T12:25:38;15.90;99.90
6822;DHT22;3449;48.728;8.968;2023-05-10T12:28:06;15.60;99.90
6822;DHT22;3449;48.728;8.968;2023-05-10T12:30:35;15.50;99.90
6822;DHT22;3449;48.728;8.968;2023-05-10T12:33:07;15.50;99.90
6822;DHT22;3449;48.728;8.968;2023-05-10T12:35:43;15.50;99.90
6822;DHT22;3449;48.728;8.968;2023-05-10T12:38:25;15.50;99.90
6822;DHT22;3449;48.728;8.968;2023-05-10T12:40:55;15.60;99.90
6822;DHT22;3449;48.728;8.968;2023-05-10T12:43:22;15.50;99.90
6822;DHT22;3449;48.728;8.968;2023-05-10T12:45:49;15.50;99.90
6822;DHT22;3449;48.728;8.968;2023-05-10T12:48:16;15.60;99.90
6822;DHT22;3449;48.728;8.968;2023-05-10T12:50:43;15.60;99.90
6822;DHT22;3449;48.728;8.968;2023-05-10T12:53:10;15.70;99.90
6822;DHT22;3449;48.728;8.968;2023-05-10T12:55:38;15.80;99.90
6822;DHT22;3449;48.728;8.968;2023-05-10T12:58:07;15.90;99.90
6822;DHT22;3449;48.728;8.968;2023-05-10T13:00:34;16.00;99.90
6822;DHT22;3449;48.728;8.968;2023-05-10T13:03:01;16.10;99.90
6822;DHT22;3449;48.728;8.968;2023-05-10T13:05:27;16.20;99.90
6822;DHT22;3449;48.728;8.968;2023-05-10T13:07:54;16.10;99.90
6822;DHT22;3449;48.728;8.968;2023-05-10T13:10:21;16.10;99.90
6822;DHT22;3449;48.728;8.968;2023-05-10T13:12:49;16.10;99.90
6822;DHT22;3449;48.728;8.968;2023-05-10T13:15:17;16.10;99.90
6822;DHT22;3449;48.728;8.968;2023-05-10T13:17:44;16.10;99.90
6822;DHT22;3449;48.728;8.968;2023-05-10T13:20:11;16.00;99.90
6822;DHT22;3449;48.728;8.968;2023-05-10T13:22:38;15.90;99.90
6822;DHT22;3449;48.728;8.968;2023-05-10T13:25:05;16.00;99.90
6822;DHT22;3449;48.728;8.968;2023-05-10T13:27:32;16.10;99.90
6822;DHT22;3449;48.728;8.968;2023-05-10T13:29:59;16.20;99.90
6822;DHT22;3449;48.728;8.968;2023-05-10T13:32:27;16.30;99.90
6822;DHT22;3449;48.728;8.968;2023-05-10T13:34:54;16.50;99.90
6822;DHT22;3449;48.728;8.968;2023-05-10T13:37:21;16.70;99.90
6822;DHT22;3449;48.728;8.968;2023-05-10T13:39:48;16.80;99.90
6822;DHT22;3449;48.728;8.968;2023-05-10T13:42:15;16.80;99.90
6822;DHT22;3449;48.728;8.968;2023-05-10T13:44:42;16.80;99.90
6822;DHT22;3449;48.728;8.968;2023-05-10T13:47:09;16.70;99.90
6822;DHT22;3449;48.728;8.968;2023-05-10T13:49:38;16.70;99.90
6822;DHT22;3449;48.728;8.968;2023-05-10T13:52:05;16.70;99.90
6822;DHT22;3449;48.728;8.968;2023-05-10T13:54:32;16.70;99.90
6822;DHT22;3449;48.728;8.968;2023-05-10T13:56:59;16.60;99.90
6822;DHT22;3449;48.728;8.968;2023-05-10T13:59:26;16.60;99.90
6822;DHT22;3449;48.728;8.968;2023-05-10T14:01:53;16.60;99.90
6822;DHT22;3449;48.728;8.968;2023-05-10T14:04:20;16.60;99.90
6822;DHT22;3449;48.728;8.968;2023-05-10T14:06:48;16.70;99.90
6822;DHT22;3449;48.728;8.968;2023-05-10T14:09:15;16.80;99.90
6822;DHT22;3449;48.728;8.968;2023-05-10T14:11:42;16.80;99.90
6822;DHT22;3449;48.728;8.968;2023-05-10T14:14:10;16.80;99.90
6822;DHT22;3449;48.728;8.968;2023-05-10T14:16:38;16.80;99.90
6822;DHT22;3449;48.728;8.968;2023-05-10T14:19:05;16.90;99.90
6822;DHT22;3449;48.728;8.968;2023-05-10T14:21:32;16.90;99.90
6822;DHT22;3449;48.728;8.968;2023-05-10T14:24:00;16.90;99.90
6822;DHT22;3449;48.728;8.968;2023-05-10T14:26:27;16.90;99.90
6822;DHT22;3449;48.728;8.968;2023-05-10T14:28:54;16.90;99.90
6822;DHT22;3449;48.728;8.968;2023-05-10T14:31:21;16.90;99.90
6822;DHT22;3449;48.728;8.968;2023-05-10T14:33:50;16.90;99.90
6822;DHT22;3449;48.728;8.968;2023-05-10T14:36:17;16.90;99.90
6822;DHT22;3449;48.728;8.968;2023-05-10T14:38:44;16.90;99.90
6822;DHT22;3449;48.728;8.968;2023-05-10T14:41:13;16.80;99.90
6822;DHT22;3449;48.728;8.968;2023-05-10T14:43:40;16.80;99.90
6822;DHT22;3449;48.728;8.968;2023-05-10T14:46:07;16.80;99.90
6822;DHT22;3449;48.728;8.968;2023-05-10T14:48:34;16.80;99.90
6822;DHT22;3449;48.728;8.968;2023-05-10T14:51:01;16.80;99.90
6822;DHT22;3449;48.728;8.968;2023-05-10T14:53:29;16.80;99.90
6822;DHT22;3449;48.728;8.968;2023-05-10T14:55:55;16.90;99.90
6822;DHT22;3449;48.728;8.968;2023-05-10T14:58:24;17.00;99.90
6822;DHT22;3449;48.728;8.968;2023-05-10T15:00:51;17.10;99.90
6822;DHT22;3449;48.728;8.968;2023-05-10T15:03:18;17.10;99.90
6822;DHT22;3449;48.728;8.968;2023-05-10T15:05:44;17.10;99.90
6822;DHT22;3449;48.728;8.968;2023-05-10T15:08:11;17.00;99.90
6822;DHT22;3449;48.728;8.968;2023-05-10T15:10:38;17.00;99.90
6822;DHT22;3449;48.728;8.968;2023-05-10T15:13:05;16.90;99.90
6822;DHT22;3449;48.728;8.968;2023-05-10T15:15:33;16.80;99.90
6822;DHT22;3449;48.728;8.968;2023-05-10T15:18:00;16.70;99.90
6822;DHT22;3449;48.728;8.968;2023-05-10T15:20:27;16.70;99.90
6822;DHT22;3449;48.728;8.968;2023-05-10T15:22:54;16.60;99.90
6822;DHT22;3449;48.728;8.968;2023-05-10T15:25:21;16.70;99.90
6822;DHT22;3449;48.728;8.968;2023-05-10T15:27:49;16.70;99.90
6822;DHT22;3449;48.728;8.968;2023-05-10T15:30:16;16.60;99.90
6822;DHT22;3449;48.728;8.968;2023-05-10T15:32:44;16.60;99.90
6822;DHT22;3449;48.728;8.968;2023-05-10T15:35:17;16.60;99.90
6822;DHT22;3449;48.728;8.968;2023-05-10T15:37:46;16.60;99.90
6822;DHT22;3449;48.728;8.968;2023-05-10T15:40:13;16.60;99.90
6822;DHT22;3449;48.728;8.968;2023-05-10T15:42:40;16.70;99.90
6822;DHT22;3449;48.728;8.968;2023-05-10T15:45:08;16.80;99.90
6822;DHT22;3449;48.728;8.968;2023-05-10T15:47:36;16.70;99.90
6822;DHT22;3449;48.728;8.968;2023-05-10T15:50:06;16.90;99.90
6822;DHT22;3449;48.728;8.968;2023-05-10T15:52:34;17.00;99.90
6822;DHT22;3449;48.728;8.968;2023-05-10T15:55:01;17.00;99.90
6822;DHT22;3449;48.728;8.968;2023-05-10T15:57:29;17.00;99.90
6822;DHT22;3449;48.728;8.968;2023-05-10T15:59:56;17.00;99.90
6822;DHT22;3449;48.728;8.968;2023-05-10T16:02:23;17.00;99.90
6822;DHT22;3449;48.728;8.968;2023-05-10T16:04:49;16.90;99.90
6822;DHT22;3449;48.728;8.968;2023-05-10T16:07:18;16.70;99.90
6822;DHT22;3449;48.728;8.968;2023-05-10T16:09:45;16.50;99.90